sensor_id;sensor_type;location;lat;lon;timestamp;P1;durP1;ratioP1;P2;durP2;ratioP2
59418;SDS011;45224;50.904;6.038;2023-08-01T00:01:24;7.22;;;5.40;;
59418;SDS011;45224;50.904;6.038;2023-08-01T00:02:55;7.47;;;4.40;;
59418;SDS011;45224;50.904;6.038;2023-08-01T00:04:25;7.88;;;5.07;;
59418;SDS011;45224;50.904;6.038;2023-08-01T00:05:56;2.53;;;1.23;;
59418;SDS011;45224;50.904;6.038;2023-08-01T00:07:27;13.15;;;8.85;;
59418;SDS011;45224;50.904;6.038;2023-08-01T00:08:58;7.80;;;5.18;;
59418;SDS011;45224;50.904;6.038;2023-08-01T00:10:28;9.20;;;3.70;;
59418;SDS011;45224;50.904;6.038;2023-08-01T00:11:59;4.55;;;2.55;;
59418;SDS011;45224;50.904;6.038;2023-08-01T00:13:29;2.35;;;1.38;;
59418;SDS011;45224;50.904;6.038;2023-08-01T00:15:00;3.88;;;1.60;;
59418;SDS011;45224;50.904;6.038;2023-08-01T00:16:31;2.75;;;0.85;;
59418;SDS011;45224;50.904;6.038;2023-08-01T00:18:02;3.25;;;1.90;;
59418;SDS011;45224;50.904;6.038;2023-08-01T00:19:33;2.50;;;1.83;;
59418;SDS011;45224;50.904;6.038;2023-08-01T00:21:03;2.13;;;1.50;;
59418;SDS011;45224;50.904;6.038;2023-08-01T00:22:35;2.00;;;0.88;;
59418;SDS011;45224;50.904;6.038;2023-08-01T00:24:06;0.52;;;0.45;;
59418;SDS011;45224;50.904;6.038;2023-08-01T00:25:38;1.00;;;0.30;;
59418;SDS011;45224;50.904;6.038;2023-08-01T00:27:08;0.52;;;0.25;;
59418;SDS011;45224;50.904;6.038;2023-08-01T00:28:40;1.55;;;0.20;;
59418;SDS011;45224;50.904;6.038;2023-08-01T00:30:11;0.50;;;0.20;;
59418;SDS011;45224;50.904;6.038;2023-08-01T00:31:41;0.10;;;0.10;;
59418;SDS011;45224;50.904;6.038;2023-08-01T00:33:12;0.30;;;0.20;;
59418;SDS011;45224;50.904;6.038;2023-08-01T00:34:43;0.25;;;0.10;;
59418;SDS011;45224;50.904;6.038;2023-08-01T00:36:13;0.52;;;0.10;;
59418;SDS011;45224;50.904;6.038;2023-08-01T00:37:44;0.17;;;0.17;;
59418;SDS011;45224;50.904;6.038;2023-08-01T00:39:17;1.75;;;0.22;;
59418;SDS011;45224;50.904;6.038;2023-08-01T00:40:50;0.43;;;0.20;;
59418;SDS011;45224;50.904;6.038;2023-08-01T00:42:21;1.80;;;0.20;;
59418;SDS011;45224;50.904;6.038;2023-08-01T00:43:54;0.28;;;0.20;;
59418;SDS011;45224;50.904;6.038;2023-08-01T00:45:25;0.52;;;0.20;;
59418;SDS011;45224;50.904;6.038;2023-08-01T00:46:56;0.40;;;0.17;;
59418;SDS011;45224;50.904;6.038;2023-08-01T00:48:28;0.93;;;0.40;;
59418;SDS011;45224;50.904;6.038;2023-08-01T00:50:00;1.10;;;0.25;;
59418;SDS011;45224;50.904;6.038;2023-08-01T00:51:32;0.32;;;0.30;;
59418;SDS011;45224;50.904;6.038;2023-08-01T00:53:05;0.55;;;0.20;;
59418;SDS011;45224;50.904;6.038;2023-08-01T00:54:38;1.33;;;0.30;;
59418;SDS011;45224;50.904;6.038;2023-08-01T00:56:09;0.73;;;0.35;;
59418;SDS011;45224;50.904;6.038;2023-08-01T00:57:39;0.88;;;0.40;;
59418;SDS011;45224;50.904;6.038;2023-08-01T00:59:11;0.35;;;0.35;;
59418;SDS011;45224;50.904;6.038;2023-08-01T01:00:43;0.40;;;0.40;;
59418;SDS011;45224;50.904;6.038;2023-08-01T01:02:13;0.70;;;0.50;;
59418;SDS011;45224;50.904;6.038;2023-08-01T01:03:44;1.67;;;0.68;;
59418;SDS011;45224;50.904;6.038;2023-08-01T01:05:14;1.23;;;0.43;;
59418;SDS011;45224;50.904;6.038;2023-08-01T01:06:51;0.80;;;0.40;;
59418;SDS011;45224;50.904;6.038;2023-08-01T01:08:26;4.68;;;0.70;;
59418;SDS011;45224;50.904;6.038;2023-08-01T01:09:57;0.82;;;0.50;;
59418;SDS011;45224;50.904;6.038;2023-08-01T01:11:28;0.82;;;0.50;;
59418;SDS011;45224;50.904;6.038;2023-08-01T01:12:58;2.78;;;0.60;;
59418;SDS011;45224;50.904;6.038;2023-08-01T01:14:29;2.33;;;0.70;;
59418;SDS011;45224;50.904;6.038;2023-08-01T01:16:00;0.52;;;0.50;;
59418;SDS011;45224;50.904;6.038;2023-08-01T01:17:30;0.40;;;0.40;;
59418;SDS011;45224;50.904;6.038;2023-08-01T01:19:01;0.40;;;0.40;;
59418;SDS011;45224;50.904;6.038;2023-08-01T01:20:35;0.75;;;0.55;;
59418;SDS011;45224;50.904;6.038;2023-08-01T01:22:07;1.13;;;0.60;;
59418;SDS011;45224;50.904;6.038;2023-08-01T01:23:40;1.02;;;0.50;;
59418;SDS011;45224;50.904;6.038;2023-08-01T01:25:13;0.47;;;0.38;;
59418;SDS011;45224;50.904;6.038;2023-08-01T01:26:45;2.55;;;0.60;;
59418;SDS011;45224;50.904;6.038;2023-08-01T01:28:17;1.05;;;0.60;;
59418;SDS011;45224;50.904;6.038;2023-08-01T01:29:51;1.10;;;0.40;;
59418;SDS011;45224;50.904;6.038;2023-08-01T01:31:23;2.70;;;0.60;;
59418;SDS011;45224;50.904;6.038;2023-08-01T01:32:54;0.30;;;0.20;;
59418;SDS011;45224;50.904;6.038;2023-08-01T01:34:26;1.00;;;0.45;;
59418;SDS011;45224;50.904;6.038;2023-08-01T01:35:59;0.73;;;0.55;;
59418;SDS011;45224;50.904;6.038;2023-08-01T01:37:30;2.83;;;0.50;;
59418;SDS011;45224;50.904;6.038;2023-08-01T01:39:01;0.50;;;0.40;;
59418;SDS011;45224;50.904;6.038;2023-08-01T01:40:32;0.50;;;0.50;;
59418;SDS011;45224;50.904;6.038;2023-08-01T01:42:03;1.55;;;0.40;;
59418;SDS011;45224;50.904;6.038;2023-08-01T01:43:34;1.17;;;0.40;;
59418;SDS011;45224;50.904;6.038;2023-08-01T01:45:05;0.32;;;0.30;;
59418;SDS011;45224;50.904;6.038;2023-08-01T01:46:36;0.40;;;0.40;;
59418;SDS011;45224;50.904;6.038;2023-08-01T01:48:06;0.75;;;0.55;;
59418;SDS011;45224;50.904;6.038;2023-08-01T01:49:37;0.85;;;0.45;;
59418;SDS011;45224;50.904;6.038;2023-08-01T01:51:07;2.50;;;0.60;;
59418;SDS011;45224;50.904;6.038;2023-08-01T01:52:38;1.58;;;0.65;;
59418;SDS011;45224;50.904;6.038;2023-08-01T01:54:09;2.53;;;1.05;;
59418;SDS011;45224;50.904;6.038;2023-08-01T01:55:40;0.95;;;0.75;;
59418;SDS011;45224;50.904;6.038;2023-08-01T01:57:10;1.50;;;0.88;;
59418;SDS011;45224;50.904;6.038;2023-08-01T01:58:41;1.15;;;0.77;;
59418;SDS011;45224;50.904;6.038;2023-08-01T02:00:12;0.80;;;0.80;;
59418;SDS011;45224;50.904;6.038;2023-08-01T02:01:45;0.80;;;0.80;;
59418;SDS011;45224;50.904;6.038;2023-08-01T02:03:16;1.42;;;1.00;;
59418;SDS011;45224;50.904;6.038;2023-08-01T02:04:46;3.35;;;1.05;;
59418;SDS011;45224;50.904;6.038;2023-08-01T02:06:18;2.13;;;0.90;;
59418;SDS011;45224;50.904;6.038;2023-08-01T02:07:48;3.10;;;1.02;;
59418;SDS011;45224;50.904;6.038;2023-08-01T02:09:19;1.60;;;1.30;;
59418;SDS011;45224;50.904;6.038;2023-08-01T02:10:50;1.10;;;1.00;;
59418;SDS011;45224;50.904;6.038;2023-08-01T02:12:21;1.15;;;0.88;;
59418;SDS011;45224;50.904;6.038;2023-08-01T02:13:51;1.50;;;0.90;;
59418;SDS011;45224;50.904;6.038;2023-08-01T02:15:22;1.88;;;1.05;;
59418;SDS011;45224;50.904;6.038;2023-08-01T02:16:52;1.90;;;1.00;;
59418;SDS011;45224;50.904;6.038;2023-08-01T02:18:23;2.20;;;1.20;;
59418;SDS011;45224;50.904;6.038;2023-08-01T02:19:53;2.72;;;1.20;;
59418;SDS011;45224;50.904;6.038;2023-08-01T02:21:24;2.30;;;1.27;;
59418;SDS011;45224;50.904;6.038;2023-08-01T02:22:54;1.85;;;1.30;;
59418;SDS011;45224;50.904;6.038;2023-08-01T02:24:25;2.65;;;1.30;;
59418;SDS011;45224;50.904;6.038;2023-08-01T02:25:55;1.55;;;1.30;;
59418;SDS011;45224;50.904;6.038;2023-08-01T02:27:27;4.18;;;1.40;;
59418;SDS011;45224;50.904;6.038;2023-08-01T02:28:57;2.70;;;1.40;;
59418;SDS011;45224;50.904;6.038;2023-08-01T02:30:28;2.90;;;1.40;;
59418;SDS011;45224;50.904;6.038;2023-08-01T02:31:59;2.47;;;1.48;;
59418;SDS011;45224;50.904;6.038;2023-08-01T02:33:29;2.45;;;1.48;;
59418;SDS011;45224;50.904;6.038;2023-08-01T02:35:00;3.85;;;1.55;;
59418;SDS011;45224;50.904;6.038;2023-08-01T02:36:30;4.05;;;1.50;;
59418;SDS011;45224;50.904;6.038;2023-08-01T02:38:01;5.13;;;2.08;;
59418;SDS011;45224;50.904;6.038;2023-08-01T02:39:33;2.78;;;1.67;;
59418;SDS011;45224;50.904;6.038;2023-08-01T02:41:05;3.80;;;1.92;;
59418;SDS011;45224;50.904;6.038;2023-08-01T02:42:35;4.03;;;2.05;;
59418;SDS011;45224;50.904;6.038;2023-08-01T02:44:06;4.00;;;1.90;;
59418;SDS011;45224;50.904;6.038;2023-08-01T02:45:36;4.25;;;2.10;;
59418;SDS011;45224;50.904;6.038;2023-08-01T02:47:07;3.10;;;2.00;;
59418;SDS011;45224;50.904;6.038;2023-08-01T02:48:37;2.83;;;2.10;;
59418;SDS011;45224;50.904;6.038;2023-08-01T02:50:08;6.55;;;2.08;;
59418;SDS011;45224;50.904;6.038;2023-08-01T02:51:38;3.20;;;2.17;;
59418;SDS011;45224;50.904;6.038;2023-08-01T02:53:09;5.50;;;2.30;;
59418;SDS011;45224;50.904;6.038;2023-08-01T02:54:39;4.60;;;2.30;;
59418;SDS011;45224;50.904;6.038;2023-08-01T02:56:10;4.53;;;2.20;;
59418;SDS011;45224;50.904;6.038;2023-08-01T02:57:40;3.22;;;2.22;;
59418;SDS011;45224;50.904;6.038;2023-08-01T02:59:11;4.95;;;2.28;;
59418;SDS011;45224;50.904;6.038;2023-08-01T03:00:41;3.55;;;2.38;;
59418;SDS011;45224;50.904;6.038;2023-08-01T03:02:12;4.05;;;2.15;;
59418;SDS011;45224;50.904;6.038;2023-08-01T03:03:42;3.65;;;2.42;;
59418;SDS011;45224;50.904;6.038;2023-08-01T03:05:13;5.38;;;2.50;;
59418;SDS011;45224;50.904;6.038;2023-08-01T03:06:44;5.97;;;2.90;;
59418;SDS011;45224;50.904;6.038;2023-08-01T03:08:15;5.63;;;2.55;;
59418;SDS011;45224;50.904;6.038;2023-08-01T03:09:45;4.45;;;2.50;;
59418;SDS011;45224;50.904;6.038;2023-08-01T03:11:16;4.53;;;2.67;;
59418;SDS011;45224;50.904;6.038;2023-08-01T03:12:46;4.53;;;2.50;;
59418;SDS011;45224;50.904;6.038;2023-08-01T03:14:17;6.07;;;2.78;;
59418;SDS011;45224;50.904;6.038;2023-08-01T03:15:47;6.47;;;2.90;;
59418;SDS011;45224;50.904;6.038;2023-08-01T03:17:18;5.55;;;2.72;;
59418;SDS011;45224;50.904;6.038;2023-08-01T03:18:48;5.32;;;2.88;;
59418;SDS011;45224;50.904;6.038;2023-08-01T03:20:20;6.00;;;2.95;;
59418;SDS011;45224;50.904;6.038;2023-08-01T03:21:50;5.70;;;2.95;;
59418;SDS011;45224;50.904;6.038;2023-08-01T03:23:21;5.57;;;2.92;;
59418;SDS011;45224;50.904;6.038;2023-08-01T03:24:51;5.43;;;2.90;;
59418;SDS011;45224;50.904;6.038;2023-08-01T03:26:22;6.45;;;2.95;;
59418;SDS011;45224;50.904;6.038;2023-08-01T03:27:53;5.50;;;2.80;;
59418;SDS011;45224;50.904;6.038;2023-08-01T03:29:24;6.72;;;3.10;;
59418;SDS011;45224;50.904;6.038;2023-08-01T03:30:55;5.38;;;3.13;;
59418;SDS011;45224;50.904;6.038;2023-08-01T03:32:25;5.55;;;2.92;;
59418;SDS011;45224;50.904;6.038;2023-08-01T03:33:56;6.30;;;3.17;;
59418;SDS011;45224;50.904;6.038;2023-08-01T03:35:28;5.22;;;2.72;;
59418;SDS011;45224;50.904;6.038;2023-08-01T03:36:59;6.78;;;2.80;;
59418;SDS011;45224;50.904;6.038;2023-08-01T03:38:29;8.68;;;3.15;;
59418;SDS011;45224;50.904;6.038;2023-08-01T03:40:00;7.63;;;3.05;;
59418;SDS011;45224;50.904;6.038;2023-08-01T03:41:31;5.40;;;2.85;;
59418;SDS011;45224;50.904;6.038;2023-08-01T03:43:02;8.18;;;2.97;;
59418;SDS011;45224;50.904;6.038;2023-08-01T03:44:33;5.10;;;3.00;;
59418;SDS011;45224;50.904;6.038;2023-08-01T03:46:03;6.90;;;2.90;;
59418;SDS011;45224;50.904;6.038;2023-08-01T03:47:35;5.25;;;2.90;;
59418;SDS011;45224;50.904;6.038;2023-08-01T03:49:05;6.13;;;2.60;;
59418;SDS011;45224;50.904;6.038;2023-08-01T03:50:36;4.50;;;2.55;;
59418;SDS011;45224;50.904;6.038;2023-08-01T03:52:06;4.35;;;2.53;;
59418;SDS011;45224;50.904;6.038;2023-08-01T03:53:37;5.10;;;2.60;;
59418;SDS011;45224;50.904;6.038;2023-08-01T03:55:08;5.93;;;3.00;;
59418;SDS011;45224;50.904;6.038;2023-08-01T03:56:39;6.25;;;2.60;;
59418;SDS011;45224;50.904;6.038;2023-08-01T03:58:13;7.18;;;3.17;;
59418;SDS011;45224;50.904;6.038;2023-08-01T03:59:43;4.78;;;2.60;;
59418;SDS011;45224;50.904;6.038;2023-08-01T04:01:14;8.05;;;2.45;;
59418;SDS011;45224;50.904;6.038;2023-08-01T04:02:44;5.57;;;2.92;;
59418;SDS011;45224;50.904;6.038;2023-08-01T04:04:15;5.55;;;2.58;;
59418;SDS011;45224;50.904;6.038;2023-08-01T04:05:45;6.28;;;2.90;;
59418;SDS011;45224;50.904;6.038;2023-08-01T04:07:16;6.40;;;2.75;;
59418;SDS011;45224;50.904;6.038;2023-08-01T04:08:46;6.93;;;3.08;;
59418;SDS011;45224;50.904;6.038;2023-08-01T04:10:17;6.75;;;3.05;;
59418;SDS011;45224;50.904;6.038;2023-08-01T04:11:47;4.97;;;2.90;;
59418;SDS011;45224;50.904;6.038;2023-08-01T04:13:18;6.68;;;3.10;;
59418;SDS011;45224;50.904;6.038;2023-08-01T04:14:48;7.50;;;3.28;;
59418;SDS011;45224;50.904;6.038;2023-08-01T04:16:19;6.35;;;3.03;;
59418;SDS011;45224;50.904;6.038;2023-08-01T04:17:49;8.05;;;3.05;;
59418;SDS011;45224;50.904;6.038;2023-08-01T04:19:20;7.55;;;3.05;;
59418;SDS011;45224;50.904;6.038;2023-08-01T04:20:50;9.45;;;3.33;;
59418;SDS011;45224;50.904;6.038;2023-08-01T04:22:21;6.15;;;2.97;;
59418;SDS011;45224;50.904;6.038;2023-08-01T04:23:51;5.63;;;2.90;;
59418;SDS011;45224;50.904;6.038;2023-08-01T04:25:22;6.63;;;2.92;;
59418;SDS011;45224;50.904;6.038;2023-08-01T04:26:55;5.97;;;3.08;;
59418;SDS011;45224;50.904;6.038;2023-08-01T04:28:25;8.10;;;2.83;;
59418;SDS011;45224;50.904;6.038;2023-08-01T04:29:56;7.30;;;2.92;;
59418;SDS011;45224;50.904;6.038;2023-08-01T04:31:26;7.05;;;3.15;;
59418;SDS011;45224;50.904;6.038;2023-08-01T04:32:57;8.23;;;3.10;;
59418;SDS011;45224;50.904;6.038;2023-08-01T04:34:27;8.40;;;2.70;;
59418;SDS011;45224;50.904;6.038;2023-08-01T04:35:58;9.82;;;3.08;;
59418;SDS011;45224;50.904;6.038;2023-08-01T04:37:28;8.73;;;3.17;;
59418;SDS011;45224;50.904;6.038;2023-08-01T04:38:59;8.60;;;3.30;;
59418;SDS011;45224;50.904;6.038;2023-08-01T04:40:29;6.72;;;3.10;;
59418;SDS011;45224;50.904;6.038;2023-08-01T04:42:00;4.93;;;2.70;;
59418;SDS011;45224;50.904;6.038;2023-08-01T04:43:30;6.75;;;2.90;;
59418;SDS011;45224;50.904;6.038;2023-08-01T04:45:01;6.00;;;2.90;;
59418;SDS011;45224;50.904;6.038;2023-08-01T04:46:31;7.28;;;3.22;;
59418;SDS011;45224;50.904;6.038;2023-08-01T04:48:02;7.82;;;3.47;;
59418;SDS011;45224;50.904;6.038;2023-08-01T04:49:33;6.60;;;3.03;;
59418;SDS011;45224;50.904;6.038;2023-08-01T04:51:03;4.53;;;2.88;;
59418;SDS011;45224;50.904;6.038;2023-08-01T04:52:34;6.20;;;2.47;;
59418;SDS011;45224;50.904;6.038;2023-08-01T04:54:04;7.63;;;3.05;;
59418;SDS011;45224;50.904;6.038;2023-08-01T04:55:35;6.47;;;3.22;;
59418;SDS011;45224;50.904;6.038;2023-08-01T04:57:05;4.93;;;2.65;;
59418;SDS011;45224;50.904;6.038;2023-08-01T04:58:36;8.18;;;3.40;;
59418;SDS011;45224;50.904;6.038;2023-08-01T05:00:07;6.13;;;2.70;;
59418;SDS011;45224;50.904;6.038;2023-08-01T05:01:39;8.32;;;2.95;;
59418;SDS011;45224;50.904;6.038;2023-08-01T05:03:10;4.22;;;2.50;;
59418;SDS011;45224;50.904;6.038;2023-08-01T05:04:40;6.72;;;3.08;;
59418;SDS011;45224;50.904;6.038;2023-08-01T05:06:11;6.97;;;2.67;;
59418;SDS011;45224;50.904;6.038;2023-08-01T05:07:41;8.25;;;3.00;;
59418;SDS011;45224;50.904;6.038;2023-08-01T05:09:12;5.07;;;3.00;;
59418;SDS011;45224;50.904;6.038;2023-08-01T05:10:43;7.68;;;2.97;;
59418;SDS011;45224;50.904;6.038;2023-08-01T05:12:13;8.27;;;3.50;;
59418;SDS011;45224;50.904;6.038;2023-08-01T05:13:44;5.43;;;2.60;;
59418;SDS011;45224;50.904;6.038;2023-08-01T05:15:14;8.75;;;3.15;;
59418;SDS011;45224;50.904;6.038;2023-08-01T05:16:44;6.68;;;3.05;;
59418;SDS011;45224;50.904;6.038;2023-08-01T05:18:16;7.60;;;3.13;;
59418;SDS011;45224;50.904;6.038;2023-08-01T05:19:47;6.82;;;2.95;;
59418;SDS011;45224;50.904;6.038;2023-08-01T05:21:17;6.13;;;2.38;;
59418;SDS011;45224;50.904;6.038;2023-08-01T05:22:48;6.22;;;3.10;;
59418;SDS011;45224;50.904;6.038;2023-08-01T05:24:18;5.85;;;2.85;;
59418;SDS011;45224;50.904;6.038;2023-08-01T05:25:49;4.53;;;2.63;;
59418;SDS011;45224;50.904;6.038;2023-08-01T05:27:19;6.32;;;3.05;;
59418;SDS011;45224;50.904;6.038;2023-08-01T05:28:50;5.15;;;3.05;;
59418;SDS011;45224;50.904;6.038;2023-08-01T05:30:20;6.70;;;3.17;;
59418;SDS011;45224;50.904;6.038;2023-08-01T05:31:51;5.55;;;3.10;;
59418;SDS011;45224;50.904;6.038;2023-08-01T05:33:22;5.30;;;2.83;;
59418;SDS011;45224;50.904;6.038;2023-08-01T05:34:52;4.90;;;2.60;;
59418;SDS011;45224;50.904;6.038;2023-08-01T05:36:23;5.82;;;2.53;;
59418;SDS011;45224;50.904;6.038;2023-08-01T05:37:53;6.30;;;3.05;;
59418;SDS011;45224;50.904;6.038;2023-08-01T05:39:23;6.60;;;2.75;;
59418;SDS011;45224;50.904;6.038;2023-08-01T05:40:54;12.15;;;3.35;;
59418;SDS011;45224;50.904;6.038;2023-08-01T05:42:24;6.10;;;2.75;;
59418;SDS011;45224;50.904;6.038;2023-08-01T05:43:55;5.60;;;2.80;;
59418;SDS011;45224;50.904;6.038;2023-08-01T05:45:27;6.05;;;3.15;;
59418;SDS011;45224;50.904;6.038;2023-08-01T05:46:57;8.85;;;3.03;;
59418;SDS011;45224;50.904;6.038;2023-08-01T05:48:28;7.10;;;3.70;;
59418;SDS011;45224;50.904;6.038;2023-08-01T05:49:58;9.02;;;3.45;;
59418;SDS011;45224;50.904;6.038;2023-08-01T05:51:29;11.55;;;3.47;;
59418;SDS011;45224;50.904;6.038;2023-08-01T05:52:59;5.25;;;3.30;;
59418;SDS011;45224;50.904;6.038;2023-08-01T05:54:29;6.28;;;3.60;;
59418;SDS011;45224;50.904;6.038;2023-08-01T05:56:00;6.70;;;3.50;;
59418;SDS011;45224;50.904;6.038;2023-08-01T05:57:30;9.27;;;3.53;;
59418;SDS011;45224;50.904;6.038;2023-08-01T05:59:01;7.57;;;3.03;;
59418;SDS011;45224;50.904;6.038;2023-08-01T06:00:32;5.80;;;3.22;;
59418;SDS011;45224;50.904;6.038;2023-08-01T06:02:02;8.73;;;3.13;;
59418;SDS011;45224;50.904;6.038;2023-08-01T06:03:33;9.07;;;3.40;;
59418;SDS011;45224;50.904;6.038;2023-08-01T06:05:04;7.80;;;3.38;;
59418;SDS011;45224;50.904;6.038;2023-08-01T06:06:35;8.35;;;3.45;;
59418;SDS011;45224;50.904;6.038;2023-08-01T06:08:06;9.50;;;4.00;;
59418;SDS011;45224;50.904;6.038;2023-08-01T06:09:38;9.32;;;3.30;;
59418;SDS011;45224;50.904;6.038;2023-08-01T06:11:08;9.70;;;3.83;;
59418;SDS011;45224;50.904;6.038;2023-08-01T06:12:39;7.05;;;3.50;;
59418;SDS011;45224;50.904;6.038;2023-08-01T06:14:09;8.50;;;3.40;;
59418;SDS011;45224;50.904;6.038;2023-08-01T06:15:40;6.65;;;2.90;;
59418;SDS011;45224;50.904;6.038;2023-08-01T06:17:10;8.25;;;3.72;;
59418;SDS011;45224;50.904;6.038;2023-08-01T06:18:41;8.18;;;3.38;;
59418;SDS011;45224;50.904;6.038;2023-08-01T06:20:11;8.70;;;3.55;;
59418;SDS011;45224;50.904;6.038;2023-08-01T06:21:42;8.90;;;3.60;;
59418;SDS011;45224;50.904;6.038;2023-08-01T06:23:13;8.05;;;3.60;;
59418;SDS011;45224;50.904;6.038;2023-08-01T06:24:43;7.13;;;2.97;;
59418;SDS011;45224;50.904;6.038;2023-08-01T06:26:14;5.55;;;2.80;;
59418;SDS011;45224;50.904;6.038;2023-08-01T06:27:45;6.85;;;3.00;;
59418;SDS011;45224;50.904;6.038;2023-08-01T06:29:16;7.15;;;3.28;;
59418;SDS011;45224;50.904;6.038;2023-08-01T06:30:54;8.40;;;3.13;;
59418;SDS011;45224;50.904;6.038;2023-08-01T06:32:24;5.22;;;2.70;;
59418;SDS011;45224;50.904;6.038;2023-08-01T06:33:55;7.45;;;3.05;;
59418;SDS011;45224;50.904;6.038;2023-08-01T06:35:26;7.47;;;3.03;;
59418;SDS011;45224;50.904;6.038;2023-08-01T06:36:56;7.50;;;3.22;;
59418;SDS011;45224;50.904;6.038;2023-08-01T06:38:27;7.07;;;3.28;;
59418;SDS011;45224;50.904;6.038;2023-08-01T06:39:57;9.60;;;3.70;;
59418;SDS011;45224;50.904;6.038;2023-08-01T06:41:29;6.05;;;3.20;;
59418;SDS011;45224;50.904;6.038;2023-08-01T06:43:00;5.85;;;2.95;;
59418;SDS011;45224;50.904;6.038;2023-08-01T06:44:30;11.55;;;3.40;;
59418;SDS011;45224;50.904;6.038;2023-08-01T06:46:01;8.57;;;3.63;;
59418;SDS011;45224;50.904;6.038;2023-08-01T06:47:31;7.38;;;3.67;;
59418;SDS011;45224;50.904;6.038;2023-08-01T06:49:02;6.82;;;2.88;;
59418;SDS011;45224;50.904;6.038;2023-08-01T06:50:32;6.38;;;3.13;;
59418;SDS011;45224;50.904;6.038;2023-08-01T06:52:03;10.43;;;3.80;;
59418;SDS011;45224;50.904;6.038;2023-08-01T06:53:34;8.95;;;3.63;;
59418;SDS011;45224;50.904;6.038;2023-08-01T06:55:04;6.53;;;3.65;;
59418;SDS011;45224;50.904;6.038;2023-08-01T06:56:35;6.53;;;4.00;;
59418;SDS011;45224;50.904;6.038;2023-08-01T06:58:06;8.82;;;3.80;;
59418;SDS011;45224;50.904;6.038;2023-08-01T06:59:36;12.43;;;4.30;;
59418;SDS011;45224;50.904;6.038;2023-08-01T07:01:07;8.50;;;3.60;;
59418;SDS011;45224;50.904;6.038;2023-08-01T07:02:37;8.18;;;3.92;;
59418;SDS011;45224;50.904;6.038;2023-08-01T07:04:08;11.30;;;3.70;;
59418;SDS011;45224;50.904;6.038;2023-08-01T07:05:38;9.93;;;4.03;;
59418;SDS011;45224;50.904;6.038;2023-08-01T07:07:09;8.38;;;4.10;;
59418;SDS011;45224;50.904;6.038;2023-08-01T07:08:39;7.20;;;4.13;;
59418;SDS011;45224;50.904;6.038;2023-08-01T07:10:10;8.40;;;4.00;;
59418;SDS011;45224;50.904;6.038;2023-08-01T07:11:40;6.75;;;3.75;;
59418;SDS011;45224;50.904;6.038;2023-08-01T07:13:11;9.30;;;3.90;;
59418;SDS011;45224;50.904;6.038;2023-08-01T07:14:41;9.05;;;4.00;;
59418;SDS011;45224;50.904;6.038;2023-08-01T07:16:12;7.68;;;3.60;;
59418;SDS011;45224;50.904;6.038;2023-08-01T07:17:43;7.72;;;4.07;;
59418;SDS011;45224;50.904;6.038;2023-08-01T07:19:14;6.70;;;4.00;;
59418;SDS011;45224;50.904;6.038;2023-08-01T07:20:44;7.25;;;3.75;;
59418;SDS011;45224;50.904;6.038;2023-08-01T07:22:15;9.77;;;3.78;;
59418;SDS011;45224;50.904;6.038;2023-08-01T07:23:45;7.68;;;3.63;;
59418;SDS011;45224;50.904;6.038;2023-08-01T07:25:17;10.93;;;3.97;;
59418;SDS011;45224;50.904;6.038;2023-08-01T07:26:49;6.32;;;3.60;;
59418;SDS011;45224;50.904;6.038;2023-08-01T07:28:20;8.05;;;3.55;;
59418;SDS011;45224;50.904;6.038;2023-08-01T07:29:50;7.60;;;3.10;;
59418;SDS011;45224;50.904;6.038;2023-08-01T07:31:21;8.30;;;3.95;;
59418;SDS011;45224;50.904;6.038;2023-08-01T07:32:51;6.50;;;3.67;;
59418;SDS011;45224;50.904;6.038;2023-08-01T07:34:22;7.82;;;3.33;;
59418;SDS011;45224;50.904;6.038;2023-08-01T07:35:54;6.45;;;3.40;;
59418;SDS011;45224;50.904;6.038;2023-08-01T07:37:24;6.63;;;3.40;;
59418;SDS011;45224;50.904;6.038;2023-08-01T07:38:58;8.95;;;3.60;;
59418;SDS011;45224;50.904;6.038;2023-08-01T07:40:28;5.90;;;3.53;;
59418;SDS011;45224;50.904;6.038;2023-08-01T07:41:59;7.10;;;3.10;;
59418;SDS011;45224;50.904;6.038;2023-08-01T07:43:30;8.55;;;3.53;;
59418;SDS011;45224;50.904;6.038;2023-08-01T07:45:00;6.03;;;2.67;;
59418;SDS011;45224;50.904;6.038;2023-08-01T07:46:31;7.05;;;3.20;;
59418;SDS011;45224;50.904;6.038;2023-08-01T07:48:02;8.40;;;3.28;;
59418;SDS011;45224;50.904;6.038;2023-08-01T07:49:33;8.02;;;3.28;;
59418;SDS011;45224;50.904;6.038;2023-08-01T07:51:04;6.25;;;2.88;;
59418;SDS011;45224;50.904;6.038;2023-08-01T07:52:36;4.70;;;2.92;;
59418;SDS011;45224;50.904;6.038;2023-08-01T07:54:06;6.72;;;3.28;;
59418;SDS011;45224;50.904;6.038;2023-08-01T07:55:37;8.85;;;3.45;;
59418;SDS011;45224;50.904;6.038;2023-08-01T07:57:07;6.43;;;2.80;;
59418;SDS011;45224;50.904;6.038;2023-08-01T07:58:38;7.28;;;2.90;;
59418;SDS011;45224;50.904;6.038;2023-08-01T08:00:08;5.72;;;2.80;;
59418;SDS011;45224;50.904;6.038;2023-08-01T08:01:45;7.70;;;2.92;;
59418;SDS011;45224;50.904;6.038;2023-08-01T08:03:16;6.50;;;2.97;;
59418;SDS011;45224;50.904;6.038;2023-08-01T08:04:46;5.40;;;2.70;;
59418;SDS011;45224;50.904;6.038;2023-08-01T08:06:17;7.63;;;2.92;;
59418;SDS011;45224;50.904;6.038;2023-08-01T08:07:47;6.15;;;2.80;;
59418;SDS011;45224;50.904;6.038;2023-08-01T08:09:18;8.73;;;3.25;;
59418;SDS011;45224;50.904;6.038;2023-08-01T08:10:48;4.57;;;2.83;;
59418;SDS011;45224;50.904;6.038;2023-08-01T08:12:19;5.82;;;2.35;;
59418;SDS011;45224;50.904;6.038;2023-08-01T08:13:49;5.97;;;3.20;;
59418;SDS011;45224;50.904;6.038;2023-08-01T08:15:20;7.78;;;3.20;;
59418;SDS011;45224;50.904;6.038;2023-08-01T08:16:50;7.35;;;3.08;;
59418;SDS011;45224;50.904;6.038;2023-08-01T08:18:21;6.47;;;3.10;;
59418;SDS011;45224;50.904;6.038;2023-08-01T08:19:51;5.60;;;2.83;;
59418;SDS011;45224;50.904;6.038;2023-08-01T08:21:22;6.03;;;2.88;;
59418;SDS011;45224;50.904;6.038;2023-08-01T08:22:52;5.75;;;2.60;;
59418;SDS011;45224;50.904;6.038;2023-08-01T08:24:23;4.47;;;2.97;;
59418;SDS011;45224;50.904;6.038;2023-08-01T08:25:53;5.82;;;3.13;;
59418;SDS011;45224;50.904;6.038;2023-08-01T08:27:24;9.15;;;3.05;;
59418;SDS011;45224;50.904;6.038;2023-08-01T08:28:55;7.25;;;2.67;;
59418;SDS011;45224;50.904;6.038;2023-08-01T08:30:25;5.18;;;2.42;;
59418;SDS011;45224;50.904;6.038;2023-08-01T08:31:56;8.60;;;2.67;;
59418;SDS011;45224;50.904;6.038;2023-08-01T08:33:26;4.68;;;2.80;;
59418;SDS011;45224;50.904;6.038;2023-08-01T08:34:56;5.90;;;2.45;;
59418;SDS011;45224;50.904;6.038;2023-08-01T08:36:27;4.25;;;2.35;;
59418;SDS011;45224;50.904;6.038;2023-08-01T08:37:58;5.15;;;2.55;;
59418;SDS011;45224;50.904;6.038;2023-08-01T08:39:29;5.53;;;2.38;;
59418;SDS011;45224;50.904;6.038;2023-08-01T08:41:10;6.88;;;2.92;;
59418;SDS011;45224;50.904;6.038;2023-08-01T08:42:44;6.22;;;2.70;;
59418;SDS011;45224;50.904;6.038;2023-08-01T08:44:16;5.65;;;2.20;;
59418;SDS011;45224;50.904;6.038;2023-08-01T08:45:49;5.05;;;2.35;;
59418;SDS011;45224;50.904;6.038;2023-08-01T08:47:22;5.90;;;2.95;;
59418;SDS011;45224;50.904;6.038;2023-08-01T08:48:56;6.45;;;2.58;;
59418;SDS011;45224;50.904;6.038;2023-08-01T08:50:27;5.05;;;2.85;;
59418;SDS011;45224;50.904;6.038;2023-08-01T08:52:00;6.25;;;2.60;;
59418;SDS011;45224;50.904;6.038;2023-08-01T08:53:33;6.13;;;2.40;;
59418;SDS011;45224;50.904;6.038;2023-08-01T08:55:05;5.78;;;2.25;;
59418;SDS011;45224;50.904;6.038;2023-08-01T08:56:36;5.47;;;2.65;;
59418;SDS011;45224;50.904;6.038;2023-08-01T08:58:08;6.18;;;2.65;;
59418;SDS011;45224;50.904;6.038;2023-08-01T08:59:39;5.47;;;2.42;;
59418;SDS011;45224;50.904;6.038;2023-08-01T09:01:11;5.63;;;2.42;;
59418;SDS011;45224;50.904;6.038;2023-08-01T09:02:41;4.82;;;2.60;;
59418;SDS011;45224;50.904;6.038;2023-08-01T09:04:12;6.03;;;2.65;;
59418;SDS011;45224;50.904;6.038;2023-08-01T09:05:50;6.55;;;2.85;;
59418;SDS011;45224;50.904;6.038;2023-08-01T09:07:24;7.35;;;2.85;;
59418;SDS011;45224;50.904;6.038;2023-08-01T09:09:04;6.18;;;2.42;;